Latest Coastal Weather Observations for Edithburgh

IDS60701

Issued at 2:31 am CST Sunday 5 July 2015 (issued every 10 minutes, with the page automatically refreshed every 10 minutes)

About coastal observations | Map of coastal stations | Coastal observations for SA | Marine services | Other Formats
Station Details ID: 022046 Name: EDITHBURGH Lat: -35.11 Lon: 137.74 Height: 6.0 m
Data from the previous 72 hours. | See also: Recent months at Edithburgh
Date/Time
CST
Temp

°C
Wind Pressure Rain
since 9am
mm
Weather Cloud Vis
km
Sea
Height
m
Swell
Dir
 
Speed
knots
Gust
knots
hPa Trend Height
m
Period
s
Dir
05/02:30am 7.3 NNW 7 8 1019.8 - 0.0 - - - - - - -
05/02:00am 7.5 NNW 8 9 1019.9 - 0.0 - - - - - - -
05/01:30am 7.0 NNW 7 8 1020.0 - 0.0 - - - - - - -
05/01:00am 7.3 NNW 7 8 1020.1 - 0.0 - - - - - - -
05/12:30am 7.6 NNW 8 9 1020.4 - 0.0 - - - - - - -
05/12:00am 7.2 NNW 7 8 1020.7 - 0.0 - - - - - - -
 
Date/Time
CST
Temp

°C
Wind Pressure Rain
since 9am
mm
Weather Cloud Vis
km
Sea
Height
m
Swell
Dir
 
Speed
knots
Gust
knots
hPa Trend Height
m
Period
s
Dir
04/11:30pm 7.4 NNW 7 8 1020.9 - 0.0 - - - - - - -
04/11:00pm 6.8 NNW 7 8 1021.1 - 0.0 - - - - - - -
04/10:30pm 6.2 NNW 6 7 1021.1 - 0.0 - - - - - - -
04/10:00pm 5.5 N 4 5 1021.2 - 0.0 - - - - - - -
04/09:30pm 6.6 N 2 2 1021.2 - 0.0 - - - - - - -
04/09:00pm 8.5 NNE 3 4 1021.3 - 0.0 - - - - - - -
04/08:30pm 8.4 N 3 4 1021.4 - 0.0 - - - - - - -
04/08:00pm 7.8 N 2 3 1021.6 - 0.0 - - - - - - -
04/07:30pm 7.2 N 3 4 1021.6 - 0.0 - - - - - - -
04/07:00pm 8.4 N 3 4 1021.7 - 0.0 - - - - - - -
04/06:30pm 10.7 N 3 3 1021.8 - 0.0 - - - - - - -
04/06:00pm 11.9 N 3 4 1021.3 - 0.0 - - - - - - -
04/05:30pm 11.9 N 4 5 1021.4 - 0.0 - - - - - - -
04/05:00pm 13.0 N 2 4 1021.5 - 0.0 - - - - - - -
04/04:30pm 13.7 NNE 3 5 1021.4 - 0.0 - - - - - - -
04/04:00pm 13.8 NE 6 7 1021.3 - 0.0 - - - - - - -
04/03:30pm 13.8 NE 7 9 1021.3 - 0.0 - - - - - - -
04/03:00pm 14.3 NE 7 9 1021.4 - 0.0 - - - - - - -
04/02:30pm 14.2 NE 7 8 1021.4 - 0.0 - - - - - - -
04/02:00pm 14.2 NE 6 9 1021.5 - 0.0 - - - - - - -
04/01:30pm 14.1 NE 6 9 1021.9 - 0.0 - - - - - - -
04/01:00pm 14.4 NE 5 8 1022.3 - 0.0 - - - - - - -
04/12:30pm 13.6 NE 6 9 1022.8 - 0.0 - - - - - - -
04/12:00pm 13.7 NNE 6 8 1023.3 - 0.0 - - - - - - -
04/11:30am 14.4 NE 6 9 1023.6 - 0.0 - - - - - - -
04/11:00am 13.1 NNE 4 6 1024.0 - 0.0 - - - - - - -
04/10:30am 13.1 NNE 3 6 1024.3 - 0.0 - - - - - - -
04/10:00am 12.6 NNE 4 6 1024.4 - 0.0 - - - - - - -
04/09:30am 12.6 N 4 6 1024.2 - 0.0 - - - - - - -
04/09:00am 11.3 N 4 6 1024.1 - - - - - - - - -
04/08:30am 8.6 NNE 2 3 1024.1 - - - - - - - - -
04/08:00am 7.6 NNW 3 4 1024.1 - - - - - - - - -
04/07:30am 7.2 N 4 5 1023.9 - - - - - - - - -
04/07:00am 8.1 N 5 7 1023.7 - - - - - - - - -
04/06:30am 8.7 NNE 3 3 1023.7 - - - - - - - - -
04/06:00am 7.7 CALM 0 1 1023.5 - - - - - - - - -
04/05:30am 7.7 N 4 5 1023.3 - - - - - - - - -
04/05:00am 7.4 N 4 4 1023.3 - - - - - - - - -
04/04:30am 6.7 N 3 3 1023.4 - - - - - - - - -
04/04:00am 6.7 N 3 4 1023.5 - - - - - - - - -
04/03:30am 7.6 N 4 5 1023.6 - - - - - - - - -
04/03:00am 6.7 NNW 4 4 1023.8 - 0.0 - - - - - - -
04/02:30am 8.0 NW 4 5 1024.0 - - - - - - - - -
04/02:00am 8.3 NNW 4 5 1024.0 - - - - - - - - -
04/01:30am 9.1 NNW 4 5 1024.1 - - - - - - - - -
04/01:00am 9.4 N 3 5 1024.1 - - - - - - - - -
04/12:30am 8.7 N 3 4 1024.4 - - - - - - - - -
04/12:00am 8.3 NNW 3 3 1024.7 - - - - - - - - -
 
Date/Time
CST
Temp

°C
Wind Pressure Rain
since 9am
mm
Weather Cloud Vis
km
Sea
Height
m
Swell
Dir
 
Speed
knots
Gust
knots
hPa Trend Height
m
Period
s
Dir
03/11:30pm 8.3 N 3 4 1024.8 - - - - - - - - -
03/11:00pm 8.0 N 3 4 1025.0 - - - - - - - - -
03/10:30pm 7.8 N 3 3 1025.2 - - - - - - - - -
03/10:00pm 8.1 N 3 4 1025.3 - - - - - - - - -
03/09:30pm 8.2 N 4 5 1025.6 - - - - - - - - -
03/09:00pm 8.3 N 3 3 1025.8 - 0.0 - - - - - - -
03/08:30pm 8.7 N 3 4 1025.8 - - - - - - - - -
03/08:00pm 9.3 N 3 3 1025.8 - - - - - - - - -
03/07:30pm 9.2 N 3 3 1025.9 - - - - - - - - -
03/07:00pm 9.8 N 2 3 1025.7 - - - - - - - - -
03/06:30pm 9.6 N 3 3 1025.9 - - - - - - - - -
03/06:00pm 10.4 N 3 5 1025.8 - - - - - - - - -
03/05:30pm 11.4 NNE 4 6 1025.9 - - - - - - - - -
03/05:00pm 11.5 NNE 4 7 1025.9 - - - - - - - - -
03/04:30pm 12.1 NNE 3 5 1025.9 - - - - - - - - -
03/04:00pm 12.2 NNE 3 6 1026.0 - - - - - - - - -
03/03:30pm 12.5 NNE 3 5 1026.1 - - - - - - - - -
03/03:00pm 12.2 NNE 4 6 1026.1 - - - - - - - - -
03/02:30pm 12.2 NNE 4 6 1026.2 - - - - - - - - -
03/02:00pm 11.7 NNE 4 6 1026.4 - - - - - - - - -
03/01:30pm 11.7 N 5 8 1026.7 - - - - - - - - -
03/01:00pm 11.8 NNE 7 11 1027.2 - - - - - - - - -
03/12:30pm 11.7 NNE 7 10 1027.5 - - - - - - - - -
03/12:00pm 11.8 NNE 5 9 1027.8 - - - - - - - - -
03/09:30am 10.9 N 5 7 1029.0 - 0.0 - - - - - - -
03/09:00am 10.5 N 4 6 1028.8 - 0.0 - - - - - - -
03/08:30am 9.9 N 6 7 1029.0 - 0.0 - - - - - - -
03/08:00am 9.3 NNW 4 5 1029.1 - 0.0 - - - - - - -
03/07:30am 9.3 N 5 7 1029.0 - 0.0 - - - - - - -
03/07:00am 9.3 NNW 6 8 1029.2 - 0.0 - - - - - - -
03/06:30am 9.3 NNW 5 6 1028.7 - 0.0 - - - - - - -
03/06:00am 9.3 N 3 5 1028.5 - 0.0 - - - - - - -
03/05:30am 9.6 NNW 5 6 1028.6 - 0.0 - - - - - - -
03/05:00am 10.3 N 3 4 1028.3 - 0.0 - - - - - - -
03/04:30am 10.3 NE 2 4 1028.5 - 0.0 - - - - - - -
03/04:00am 10.8 NNE 1 3 1028.9 - 0.0 - - - - - - -
03/03:30am 11.4 NE 4 5 1029.1 - 0.0 - - - - - - -
03/03:00am 11.6 ENE 6 7 1029.4 - 0.0 - - - - - - -
03/02:30am 11.4 ENE 6 8 1029.5 - 0.0 - - - - - - -
03/02:00am 11.3 ENE 6 8 1029.4 - 0.0 - - - - - - -
03/01:30am 11.2 NE 5 7 1029.3 - 0.0 - - - - - - -
03/01:00am 11.1 NE 4 5 1029.5 - 0.0 - - - - - - -
03/12:30am 10.4 ENE 3 5 1029.9 - 0.0 - - - - - - -
03/12:00am 10.3 ENE 3 4 1030.2 - 0.0 - - - - - - -
 
Date/Time
CST
Temp

°C
Wind Pressure Rain
since 9am
mm
Weather Cloud Vis
km
Sea
Height
m
Swell
Dir
 
Speed
knots
Gust
knots
hPa Trend Height
m
Period
s
Dir
02/11:30pm 9.7 E 5 6 1030.3 - 0.0 - - - - - - -
02/11:00pm 9.8 ESE 6 7 1030.2 - 0.0 - - - - - - -
02/10:30pm 10.7 ESE 6 8 1030.3 - 0.0 - - - - - - -
02/10:00pm 10.8 ESE 6 8 1030.5 - 0.0 - - - - - - -
02/09:30pm 11.1 ESE 6 8 1030.5 - 0.0 - - - - - - -
02/09:00pm 11.2 ESE 6 8 1030.5 - 0.0 - - - - - - -
02/08:30pm 11.4 ESE 7 9 1030.4 - 0.0 - - - - - - -
02/08:00pm 10.4 SE 4 5 1030.4 - 0.0 - - - - - - -
02/07:30pm 10.3 SSE 2 3 1030.2 - 0.0 - - - - - - -
02/07:00pm 10.9 SE 5 6 1029.9 - 0.0 - - - - - - -
02/06:30pm 10.8 SSE 5 6 1029.6 - 0.0 - - - - - - -
02/06:00pm 11.3 SSE 5 7 1029.5 - 0.0 - - - - - - -
02/05:30pm 11.3 SSE 5 7 1029.4 - 0.0 - - - - - - -
02/05:00pm 12.1 SSE 6 7 1029.4 - 0.0 - - - - - - -
02/04:30pm 13.0 SSE 6 8 1029.3 - 0.0 - - - - - - -
02/04:00pm 13.4 S 8 11 1029.3 - 0.0 - - - - - - -
02/03:30pm 13.8 S 8 10 1029.4 - 0.0 - - - - - - -
02/03:00pm 14.1 SSE 8 11 1029.0 - 0.0 - - - - - - -
02/02:30pm 14.0 S 9 12 1029.1 - 0.0 - - - - - - -
02/02:00pm 14.3 SSE 9 12 1029.2 - 0.0 - - - - - - -
02/01:30pm 14.2 S 10 12 1029.4 - 0.0 - - - - - - -
02/01:00pm 14.6 S 7 10 1029.8 - 0.0 - - - - - - -
02/12:30pm 14.5 SSW 8 11 1029.9 - 0.0 - - - - - - -
02/12:00pm 14.3 SSW 7 10 1030.0 - 0.0 - - - - - - -
02/11:30am 14.5 SSE 9 12 1029.9 - 0.0 - - - - - - -
02/11:00am 14.2 S 10 13 1030.1 - 0.0 - - - - - - -
02/10:30am 14.1 S 11 16 1030.0 - 0.0 - - - - - - -
02/10:00am 13.9 SSW 9 13 1029.8 - 0.0 - - - - - - -
02/09:30am 13.8 SSW 9 11 1029.3 - 0.0 - - - - - - -
02/09:00am 13.0 S 8 12 1029.1 - 0.8 - - - - - - -
02/08:30am 13.0 S 8 11 1028.8 - 0.8 - - - - - - -
02/08:00am 12.2 SW 5 6 1028.4 - 0.8 - - - - - - -
02/07:30am 10.4 W 5 7 1028.2 - 0.8 - - - - - - -
02/07:00am 10.1 WNW 6 7 1027.6 - 0.8 - - - - - - -
02/06:30am 9.1 NW 8 8 1027.0 - 0.0 - - - - - - -
02/06:00am 9.4 NW 7 8 1026.9 - 0.0 - - - - - - -
02/05:30am 9.6 WNW 6 7 1026.7 - 0.0 - - - - - - -
02/05:00am 10.8 WNW 7 9 1026.8 - 0.0 - - - - - - -
02/04:30am 10.9 WNW 7 10 1026.9 - 0.0 - - - - - - -
02/04:00am 10.8 WNW 6 8 1026.7 - 0.0 - - - - - - -
02/03:30am 10.5 NW 7 8 1026.9 - 0.0 - - - - - - -
02/03:00am 10.5 WNW 6 7 1026.8 - 0.0 - - - - - - -

Other Formats:

Comma delimited format used in spreadsheet applications
http://www.bom.gov.au/fwo/IDS60701/IDS60701.94809.axf

JavaScript Object Notation format (JSON) in row-major order
http://www.bom.gov.au/fwo/IDS60701/IDS60701.94809.json